Marietta — WJ6405 — position and weather

sailwx.info

Track history (hours):
 
Tides and Currents Weather Stations Pressure Air Temp Water Temp Dewpoint Dewpoint Depression Visibility Wind Speed Wind Dir Waves Ship Positions

Marietta

Owner: STAR & CRESCENT BOAT CO, SAN DIEGO, CA. More information available from US FCC via Universal Licensing System and Coast Guard Vessel Documentation Center.

Last reported at 2017-Nov-16 21:09 UTC. Time now 2017-Nov-18 04:39 UTC.
Position N 32°42' W 117°10'.

MMSI: 367373960.

Date/timePositionNaut miles runAvg speedWind from/ knotsBaromVisibWave heightAir tempDewpointWater temp
2017-Nov-16 21:09N 32°42' W 117°10'0 0.0
2017-Nov-16 18:19N 32°42' W 117°10'0 0.0
2017-Nov-15 00:30N 32°42' W 117°10'0 0.0
2017-Nov-14 23:59N 32°42' W 117°10'0 0.0
2017-Nov-14 23:31N 32°42' W 117°10'0 0.0
2017-Nov-14 23:00N 32°42' W 117°10'0 0.0
2017-Nov-14 22:28N 32°42' W 117°10'0 0.0
2017-Nov-14 21:57N 32°42' W 117°10'0 0.0
2017-Nov-14 21:09N 32°42' W 117°10'0 0.0
2017-Nov-14 21:00N 32°42' W 117°10'0 0.0
2017-Nov-14 20:29N 32°42' W 117°10'0 0.0
2017-Nov-14 15:11N 32°42' W 117°10'0 0.0
2017-Nov-14 15:00N 32°42' W 117°10'0 0.0
2017-Nov-14 14:24N 32°42' W 117°10'0 0.0
2017-Nov-14 13:59N 32°42' W 117°10'0 0.0
2017-Nov-14 03:56N 32°42' W 117°10'0 0.0
2017-Nov-14 01:10N 32°42' W 117°10'0 0.0
2017-Nov-13 21:52N 32°42' W 117°10'0 0.0
2017-Nov-13 01:09N 32°42' W 117°10'1 2.2
2017-Nov-13 00:43N 32°43' W 117°10'2 7.0
2017-Nov-13 00:29N 32°43' W 117°12'4 8.6
2017-Nov-13 00:00N 32°39' W 117°14'5 9.5
2017-Nov-12 23:30N 32°37' W 117°19'3 5.5
2017-Nov-12 23:00N 32°38' W 117°22'5 9.2
2017-Nov-12 22:31N 32°38' W 117°17'4 7.5
2017-Nov-12 21:57N 32°41' W 117°14'3 7.1
2017-Nov-12 21:30N 32°43' W 117°10'0 0.0
2017-Nov-12 21:01N 32°43' W 117°10'4 3.4
2017-Nov-12 19:48N 32°40' W 117°14'2 8.6
2017-Nov-12 19:30N 32°38' W 117°15'5 8.9
2017-Nov-12 18:59N 32°37' W 117°21'4 9.2
2017-Nov-12 18:30N 32°38' W 117°16'5 8.1
2017-Nov-12 17:52N 32°42' W 117°13'3 6.7
2017-Nov-12 17:30N 32°43' W 117°10'0 0.1
2017-Nov-12 16:57N 32°43' W 117°10'1 2.0
2017-Nov-12 16:31N 32°42' W 117°10'0 0.0
2017-Nov-12 15:59N 32°42' W 117°10'0 0.0
2017-Nov-12 15:18N 32°42' W 117°10'0 0.0
2017-Nov-12 15:00N 32°42' W 117°10'0 0.0
2017-Nov-12 14:11N 32°42' W 117°10'0 0.0
2017-Nov-12 13:57N 32°42' W 117°10'0 0.0
2017-Nov-12 13:30N 32°42' W 117°10'0 0.0
2017-Nov-12 12:59N 32°42' W 117°10'0 0.0
2017-Nov-12 12:31N 32°42' W 117°10'0 0.0
2017-Nov-12 07:26N 32°42' W 117°10'0 0.0
2017-Nov-12 06:36N 32°42' W 117°10'0 0.0
2017-Nov-12 06:30N 32°42' W 117°10'0 0.0
2017-Nov-12 05:47N 32°42' W 117°10'0 0.0
2017-Nov-12 05:28N 32°42' W 117°10'3 0.5
2017-Nov-12 00:20N 32°43' W 117°13'6 8.8
2017-Nov-11 23:41N 32°38' W 117°15'3 8.3
2017-Nov-11 23:23N 32°40' W 117°17'1 3.8
2017-Nov-11 23:01N 32°41' W 117°17'1 2.6
2017-Nov-11 22:29N 32°40' W 117°16'3 4.6
2017-Nov-11 21:55N 32°42' W 117°14'3 5.5
2017-Nov-11 21:22N 32°43' W 117°10'3 7.3
2017-Nov-11 20:59N 32°42' W 117°14'4 8.6
2017-Nov-11 20:31N 32°39' W 117°16'5 9.3
2017-Nov-11 19:56N 32°39' W 117°22'2 3.7
2017-Nov-11 19:30N 32°41' W 117°23'1 1.7
2017-Nov-11 19:00N 32°40' W 117°22'5 9.1
2017-Nov-11 18:31N 32°39' W 117°17'  
2017-Nov-08 21:14N 32°43' W 117°13'1 0.3
2017-Nov-08 18:47N 32°42' W 117°13'3 0.1
2017-Nov-07 15:17N 32°42' W 117°10'0 0.0
2017-Nov-07 14:28N 32°42' W 117°10'0 0.0
2017-Nov-07 13:54N 32°42' W 117°10'0 0.0
2017-Nov-07 05:40N 32°42' W 117°10'0 0.0
2017-Nov-07 05:28N 32°42' W 117°10'  
Track history (hours):
 
Tides and Currents Weather Stations Pressure Air Temp Water Temp Dewpoint Dewpoint Depression Visibility Wind Speed Wind Dir Waves Ship Positions

Marietta

Owner: STAR & CRESCENT BOAT CO, SAN DIEGO, CA. More information available from US FCC via Universal Licensing System and Coast Guard Vessel Documentation Center.

Last reported at 2017-Nov-16 21:09 UTC. Time now 2017-Nov-18 04:39 UTC.
Position N 32°42' W 117°10'.

MMSI: 367373960.

Date/timePositionNaut miles runAvg speedWind from/ knotsBaromVisibWave heightAir tempDewpointWater temp
2017-Nov-16 21:09N 32°42' W 117°10'0 0.0
2017-Nov-16 18:19N 32°42' W 117°10'0 0.0
2017-Nov-15 00:30N 32°42' W 117°10'0 0.0
2017-Nov-14 23:59N 32°42' W 117°10'0 0.0
2017-Nov-14 23:31N 32°42' W 117°10'0 0.0
2017-Nov-14 23:00N 32°42' W 117°10'0 0.0
2017-Nov-14 22:28N 32°42' W 117°10'0 0.0
2017-Nov-14 21:57N 32°42' W 117°10'0 0.0
2017-Nov-14 21:09N 32°42' W 117°10'0 0.0
2017-Nov-14 21:00N 32°42' W 117°10'0 0.0
2017-Nov-14 20:29N 32°42' W 117°10'0 0.0
2017-Nov-14 15:11N 32°42' W 117°10'0 0.0
2017-Nov-14 15:00N 32°42' W 117°10'0 0.0
2017-Nov-14 14:24N 32°42' W 117°10'0 0.0
2017-Nov-14 13:59N 32°42' W 117°10'0 0.0
2017-Nov-14 03:56N 32°42' W 117°10'0 0.0
2017-Nov-14 01:10N 32°42' W 117°10'0 0.0
2017-Nov-13 21:52N 32°42' W 117°10'0 0.0
2017-Nov-13 01:09N 32°42' W 117°10'1 2.2
2017-Nov-13 00:43N 32°43' W 117°10'2 7.0
2017-Nov-13 00:29N 32°43' W 117°12'4 8.6
2017-Nov-13 00:00N 32°39' W 117°14'5 9.5
2017-Nov-12 23:30N 32°37' W 117°19'3 5.5
2017-Nov-12 23:00N 32°38' W 117°22'5 9.2
2017-Nov-12 22:31N 32°38' W 117°17'4 7.5
2017-Nov-12 21:57N 32°41' W 117°14'3 7.1
2017-Nov-12 21:30N 32°43' W 117°10'0 0.0
2017-Nov-12 21:01N 32°43' W 117°10'4 3.4
2017-Nov-12 19:48N 32°40' W 117°14'2 8.6
2017-Nov-12 19:30N 32°38' W 117°15'5 8.9
2017-Nov-12 18:59N 32°37' W 117°21'4 9.2
2017-Nov-12 18:30N 32°38' W 117°16'5 8.1
2017-Nov-12 17:52N 32°42' W 117°13'3 6.7
2017-Nov-12 17:30N 32°43' W 117°10'0 0.1
2017-Nov-12 16:57N 32°43' W 117°10'1 2.0
2017-Nov-12 16:31N 32°42' W 117°10'0 0.0
2017-Nov-12 15:59N 32°42' W 117°10'0 0.0
2017-Nov-12 15:18N 32°42' W 117°10'0 0.0
2017-Nov-12 15:00N 32°42' W 117°10'0 0.0
2017-Nov-12 14:11N 32°42' W 117°10'0 0.0
2017-Nov-12 13:57N 32°42' W 117°10'0 0.0
2017-Nov-12 13:30N 32°42' W 117°10'0 0.0
2017-Nov-12 12:59N 32°42' W 117°10'0 0.0
2017-Nov-12 12:31N 32°42' W 117°10'0 0.0
2017-Nov-12 07:26N 32°42' W 117°10'0 0.0
2017-Nov-12 06:36N 32°42' W 117°10'0 0.0
2017-Nov-12 06:30N 32°42' W 117°10'0 0.0
2017-Nov-12 05:47N 32°42' W 117°10'0 0.0
2017-Nov-12 05:28N 32°42' W 117°10'3 0.5
2017-Nov-12 00:20N 32°43' W 117°13'6 8.8
2017-Nov-11 23:41N 32°38' W 117°15'3 8.3
2017-Nov-11 23:23N 32°40' W 117°17'1 3.8
2017-Nov-11 23:01N 32°41' W 117°17'1 2.6
2017-Nov-11 22:29N 32°40' W 117°16'3 4.6
2017-Nov-11 21:55N 32°42' W 117°14'3 5.5
2017-Nov-11 21:22N 32°43' W 117°10'3 7.3
2017-Nov-11 20:59N 32°42' W 117°14'4 8.6
2017-Nov-11 20:31N 32°39' W 117°16'5 9.3
2017-Nov-11 19:56N 32°39' W 117°22'2 3.7
2017-Nov-11 19:30N 32°41' W 117°23'1 1.7
2017-Nov-11 19:00N 32°40' W 117°22'5 9.1
2017-Nov-11 18:31N 32°39' W 117°17'  
2017-Nov-08 21:14N 32°43' W 117°13'1 0.3
2017-Nov-08 18:47N 32°42' W 117°13'3 0.1
2017-Nov-07 15:17N 32°42' W 117°10'0 0.0
2017-Nov-07 14:28N 32°42' W 117°10'0 0.0
2017-Nov-07 13:54N 32°42' W 117°10'0 0.0
2017-Nov-07 05:40N 32°42' W 117°10'0 0.0
2017-Nov-07 05:28N 32°42' W 117°10'  

Dump ship's entire track history